createdAt,value
2018-03-22T00:00:15.871Z,96.20
2018-03-22T00:01:16.727Z,96.25
2018-03-22T00:02:15.987Z,97.29
2018-03-22T00:03:15.986Z,96.16
2018-03-22T00:04:16.032Z,96.35
2018-03-22T00:05:16.063Z,95.87
2018-03-22T00:06:16.101Z,97.10
2018-03-22T00:07:16.170Z,96.39
2018-03-22T00:08:16.178Z,96.77
2018-03-22T00:09:16.219Z,97.43
2018-03-22T00:10:16.254Z,97.48
2018-03-22T00:11:16.295Z,97.10
2018-03-22T00:12:16.363Z,97.15
2018-03-22T00:13:16.372Z,97.62
2018-03-22T00:14:16.408Z,96.96
2018-03-22T00:15:16.446Z,97.62
2018-03-22T00:16:16.493Z,97.62
2018-03-22T00:17:16.567Z,97.72
2018-03-22T00:18:16.564Z,97.77
2018-03-22T00:19:16.599Z,97.29
2018-03-22T00:20:16.640Z,97.05
2018-03-22T00:21:16.678Z,97.05
2018-03-22T00:22:16.751Z,97.81
2018-03-22T00:23:16.753Z,97.81
2018-03-22T00:24:16.793Z,97.91
2018-03-22T00:25:16.831Z,96.77
2018-03-22T00:26:16.867Z,97.53
2018-03-22T00:27:16.938Z,97.24
2018-03-22T00:28:16.948Z,97.24
2018-03-22T00:29:16.984Z,98.00
2018-03-22T00:30:17.022Z,97.62
2018-03-22T00:31:17.083Z,97.24
2018-03-22T00:32:17.138Z,97.24
2018-03-22T00:33:17.135Z,97.34
2018-03-22T00:34:17.173Z,97.15
2018-03-22T00:35:17.212Z,97.81
2018-03-22T00:36:17.251Z,97.24
2018-03-22T00:37:17.320Z,97.05
2018-03-22T00:38:17.332Z,97.34
2018-03-22T00:39:17.372Z,97.01
2018-03-22T00:40:17.403Z,97.10
2018-03-22T00:41:17.440Z,97.20
2018-03-22T00:42:17.513Z,96.16
2018-03-22T00:43:17.520Z,97.01
2018-03-22T00:44:17.558Z,97.01
2018-03-22T00:45:17.593Z,97.48
2018-03-22T00:46:17.632Z,97.39
2018-03-22T00:47:17.711Z,97.20
2018-03-22T00:48:17.708Z,97.29
2018-03-22T00:49:17.747Z,97.81
2018-03-22T00:50:17.785Z,97.81
2018-03-22T00:51:17.823Z,98.19
2018-03-22T00:52:17.885Z,97.53
2018-03-22T00:53:17.928Z,98.38
2018-03-22T00:54:17.938Z,97.72
2018-03-22T00:55:17.976Z,98.38
2018-03-22T00:56:18.019Z,98.19
2018-03-22T00:57:18.053Z,98.66
2018-03-22T00:58:18.117Z,98.47
2018-03-22T00:59:18.152Z,98.57
2018-03-22T01:00:18.168Z,98.85
2018-03-22T01:01:18.205Z,99.04
2018-03-22T01:02:18.242Z,98.85
2018-03-22T01:03:18.324Z,98.66
2018-03-22T01:04:18.319Z,98.94
2018-03-22T01:05:18.358Z,99.60
2018-03-22T01:06:18.395Z,99.13
2018-03-22T01:07:18.435Z,99.60
2018-03-22T01:08:18.503Z,99.79
2018-03-22T01:09:18.511Z,99.22
2018-03-22T01:10:18.552Z,99.51
2018-03-22T01:11:18.588Z,99.60
2018-03-22T01:12:18.628Z,99.99
2018-03-22T01:13:18.685Z,99.99
2018-03-22T01:14:18.726Z,99.99
2018-03-22T01:15:18.739Z,99.99
2018-03-22T01:16:18.776Z,99.99
2018-03-22T01:17:18.813Z,99.99
2018-03-22T01:18:18.852Z,99.99
2018-03-22T01:19:18.918Z,99.99
2018-03-22T01:20:18.929Z,99.99
2018-03-22T01:21:18.968Z,99.99
2018-03-22T01:22:19.005Z,99.99
2018-03-22T01:23:19.044Z,99.99
2018-03-22T01:24:19.104Z,99.99
2018-03-22T01:25:19.119Z,99.99
2018-03-22T01:26:19.156Z,99.99
2018-03-22T01:27:19.194Z,99.99
2018-03-22T01:28:19.235Z,99.99
2018-03-22T01:29:19.299Z,99.99
2018-03-22T01:30:19.341Z,99.99
2018-03-22T01:31:19.347Z,99.99
2018-03-22T01:32:19.384Z,99.99
2018-03-22T01:33:19.481Z,99.99
2018-03-22T01:34:19.461Z,99.99
2018-03-22T01:35:19.523Z,99.99
2018-03-22T01:36:19.562Z,99.99
2018-03-22T01:37:19.574Z,99.99
2018-03-22T01:38:19.614Z,99.99
2018-03-22T01:39:19.651Z,99.99
2018-03-22T01:40:19.689Z,99.99
2018-03-22T01:41:19.752Z,99.99
2018-03-22T01:42:19.768Z,99.99
2018-03-22T01:43:19.809Z,99.99
2018-03-22T01:44:19.844Z,99.99
2018-03-22T01:45:19.883Z,99.99
2018-03-22T01:46:19.953Z,99.99
2018-03-22T01:47:19.957Z,99.99
2018-03-22T01:48:19.995Z,99.99
2018-03-22T01:49:20.032Z,99.99
2018-03-22T01:50:20.072Z,99.99
2018-03-22T01:51:20.138Z,99.99
2018-03-22T01:52:20.150Z,99.99
2018-03-22T01:53:20.186Z,99.99
2018-03-22T01:54:20.223Z,99.99
2018-03-22T01:55:20.263Z,99.99
2018-03-22T01:56:20.323Z,99.99
2018-03-22T01:57:20.338Z,99.99
2018-03-22T01:58:20.403Z,99.99
2018-03-22T01:59:20.422Z,99.99
2018-03-22T02:00:20.453Z,99.99
2018-03-22T02:01:20.489Z,99.99
2018-03-22T02:02:20.529Z,99.99
2018-03-22T02:03:20.589Z,99.99
2018-03-22T02:04:20.604Z,99.99
2018-03-22T02:05:20.643Z,99.99
2018-03-22T02:06:20.680Z,99.99
2018-03-22T02:07:20.716Z,99.99
2018-03-22T02:08:20.780Z,99.99
2018-03-22T02:09:20.792Z,99.99
2018-03-22T02:10:20.829Z,99.99
2018-03-22T02:11:20.868Z,99.99
2018-03-22T02:12:20.909Z,99.99
2018-03-22T02:13:20.968Z,99.99
2018-03-22T02:14:20.984Z,99.99
2018-03-22T02:15:21.019Z,99.99
2018-03-22T02:16:21.061Z,99.99
2018-03-22T02:17:21.096Z,99.99
2018-03-22T02:18:21.157Z,99.99
2018-03-22T02:19:21.174Z,99.99
2018-03-22T02:20:21.233Z,99.99
2018-03-22T02:21:21.249Z,99.99
2018-03-22T02:22:21.286Z,99.99
2018-03-22T02:23:21.323Z,99.99
2018-03-22T02:24:21.383Z,99.99
2018-03-22T02:25:21.422Z,99.99
2018-03-22T02:26:21.438Z,99.99
2018-03-22T02:27:21.474Z,99.99
2018-03-22T02:28:21.514Z,99.99
2018-03-22T02:29:21.553Z,99.99
2018-03-22T02:30:21.617Z,99.99
2018-03-22T02:31:21.626Z,99.99
2018-03-22T02:32:21.665Z,99.99
2018-03-22T02:33:21.702Z,99.99
2018-03-22T02:34:21.741Z,99.99
2018-03-22T02:35:21.802Z,99.99
2018-03-22T02:36:21.842Z,99.99
2018-03-22T02:37:21.853Z,99.99
2018-03-22T02:38:21.894Z,99.99
2018-03-22T02:39:21.931Z,99.99
2018-03-22T02:40:21.995Z,99.99
2018-03-22T02:41:22.007Z,99.99
2018-03-22T02:42:22.065Z,99.99
2018-03-22T02:43:22.080Z,99.99
2018-03-22T02:44:22.141Z,99.99
2018-03-22T02:45:22.160Z,99.99
2018-03-22T02:46:22.218Z,99.99
2018-03-22T02:47:22.257Z,99.99
2018-03-22T02:48:22.273Z,99.99
2018-03-22T02:49:22.308Z,99.99
2018-03-22T02:50:22.347Z,99.99
2018-03-22T02:51:22.383Z,99.99
2018-03-22T02:52:22.449Z,99.99
2018-03-22T02:53:22.484Z,99.99
2018-03-22T02:54:22.497Z,99.99
2018-03-22T02:55:22.535Z,99.99
2018-03-22T02:56:22.577Z,99.99
2018-03-22T02:57:22.612Z,99.99
2018-03-22T02:58:22.674Z,99.99
2018-03-22T02:59:22.689Z,99.99
2018-03-22T03:00:22.733Z,99.99
2018-03-22T03:01:22.762Z,99.99
2018-03-22T03:02:22.800Z,99.99
2018-03-22T03:03:22.870Z,99.99
2018-03-22T03:04:22.877Z,99.99
2018-03-22T03:05:22.914Z,99.99
2018-03-22T03:06:22.950Z,99.99
2018-03-22T03:07:22.993Z,99.99
2018-03-22T03:08:23.048Z,99.99
2018-03-22T03:09:23.063Z,99.99
2018-03-22T03:10:23.124Z,99.99
2018-03-22T03:11:23.138Z,99.99
2018-03-22T03:12:23.177Z,99.99
2018-03-22T03:13:23.212Z,99.99
2018-03-22T03:14:23.278Z,99.99
2018-03-22T03:15:23.287Z,99.99
2018-03-22T03:16:23.330Z,99.99
2018-03-22T03:17:23.369Z,99.99
2018-03-22T03:18:23.406Z,99.99
2018-03-22T03:19:23.486Z,99.99
2018-03-22T03:20:23.482Z,99.99
2018-03-22T03:21:23.514Z,99.99
2018-03-22T03:22:23.554Z,99.99
2018-03-22T03:23:23.599Z,99.99
2018-03-22T03:24:23.650Z,99.99
2018-03-22T03:25:23.692Z,99.99
2018-03-22T03:26:23.703Z,99.99
2018-03-22T03:27:23.739Z,99.99
2018-03-22T03:28:23.778Z,99.99
2018-03-22T03:29:23.820Z,99.99
2018-03-22T03:30:23.945Z,99.99
2018-03-22T03:31:23.893Z,99.99
2018-03-22T03:32:23.928Z,99.99
2018-03-22T03:33:23.965Z,99.99
2018-03-22T03:34:24.002Z,99.99
2018-03-22T03:35:24.074Z,99.99
2018-03-22T03:36:24.077Z,99.99
2018-03-22T03:37:24.117Z,99.99
2018-03-22T03:38:24.153Z,99.99
2018-03-22T03:39:24.191Z,99.99
2018-03-22T03:40:24.251Z,99.99
2018-03-22T03:41:24.265Z,99.99
2018-03-22T03:42:24.325Z,99.99
2018-03-22T03:43:24.342Z,99.99
2018-03-22T03:44:24.379Z,99.99
2018-03-22T03:45:24.419Z,99.99
2018-03-22T03:46:24.478Z,99.99
2018-03-22T03:47:24.518Z,99.99
2018-03-22T03:48:24.529Z,99.99
2018-03-22T03:49:24.566Z,99.99
2018-03-22T03:50:24.603Z,99.99
2018-03-22T03:51:24.641Z,99.99
2018-03-22T03:52:24.717Z,99.99
2018-03-22T03:53:24.715Z,99.99
2018-03-22T03:54:24.751Z,99.99
2018-03-22T03:55:24.789Z,99.99
2018-03-22T03:56:24.855Z,99.99
2018-03-22T03:57:24.887Z,99.99
2018-03-22T03:58:24.903Z,99.99
2018-03-22T03:59:24.945Z,99.99
2018-03-22T04:00:24.980Z,99.99
2018-03-22T04:01:25.015Z,99.99
2018-03-22T04:02:25.079Z,99.99
2018-03-22T04:03:25.119Z,99.99
2018-03-22T04:04:25.166Z,99.99
2018-03-22T04:05:25.165Z,99.99
2018-03-22T04:06:25.206Z,99.99
2018-03-22T04:07:25.245Z,99.99
2018-03-22T04:08:25.301Z,99.99
2018-03-22T04:09:25.312Z,99.99
2018-03-22T04:10:25.351Z,99.99
2018-03-22T04:11:25.389Z,99.99
2018-03-22T04:12:25.428Z,99.99
2018-03-22T04:13:25.491Z,99.99
2018-03-22T04:14:25.500Z,99.99
2018-03-22T04:15:25.540Z,99.99
2018-03-22T04:16:25.592Z,99.99
2018-03-22T04:17:25.613Z,99.99
2018-03-22T04:18:25.685Z,99.99
2018-03-22T04:19:25.706Z,99.99
2018-03-22T04:20:25.727Z,99.99
2018-03-22T04:21:25.761Z,99.99
2018-03-22T04:22:25.802Z,99.99
2018-03-22T04:23:25.884Z,99.99
2018-03-22T04:24:25.875Z,99.99
2018-03-22T04:25:25.914Z,99.99
2018-03-22T04:26:25.954Z,99.99
2018-03-22T04:27:25.991Z,99.99
2018-03-22T04:28:26.200Z,99.99
2018-03-22T04:29:26.088Z,99.99
2018-03-22T04:30:26.107Z,99.99
2018-03-22T04:31:26.139Z,99.99
2018-03-22T04:32:26.178Z,99.99
2018-03-22T04:33:26.213Z,99.99
2018-03-22T04:34:26.289Z,99.99
2018-03-22T04:35:26.288Z,99.70
2018-03-22T04:36:26.341Z,99.46
2018-03-22T04:37:26.364Z,99.79
2018-03-22T04:38:26.399Z,99.99
2018-03-22T04:39:26.473Z,99.99
2018-03-22T04:40:26.477Z,99.99
2018-03-22T04:41:26.518Z,99.99
2018-03-22T04:42:26.556Z,99.99
2018-03-22T04:43:26.601Z,99.99
2018-03-22T04:44:26.651Z,99.99
2018-03-22T04:45:26.666Z,99.99
2018-03-22T04:46:26.729Z,99.99
2018-03-22T04:47:26.740Z,99.99
2018-03-22T04:48:26.777Z,99.99
2018-03-22T04:49:26.819Z,99.99
2018-03-22T04:50:26.875Z,99.99
2018-03-22T04:51:26.915Z,99.99
2018-03-22T04:52:26.932Z,99.99
2018-03-22T04:53:26.973Z,99.99
2018-03-22T04:54:27.003Z,99.99
2018-03-22T04:55:27.041Z,99.99
2018-03-22T04:56:27.108Z,99.99
2018-03-22T04:57:27.128Z,99.99
2018-03-22T04:58:27.155Z,99.99
2018-03-22T04:59:27.195Z,99.99
2018-03-22T05:00:27.234Z,99.99
2018-03-22T05:01:27.329Z,99.99
2018-03-22T05:02:27.307Z,99.99
2018-03-22T05:03:27.345Z,99.99
2018-03-22T05:04:27.380Z,99.99
2018-03-22T05:05:27.418Z,99.99
2018-03-22T05:06:27.490Z,99.99
2018-03-22T05:07:27.492Z,99.99
2018-03-22T05:08:27.530Z,99.99
2018-03-22T05:09:27.570Z,99.99
2018-03-22T05:10:27.608Z,99.99
2018-03-22T05:11:27.668Z,99.99
2018-03-22T05:12:27.706Z,99.99
2018-03-22T05:13:27.724Z,99.99
2018-03-22T05:14:27.757Z,99.99
2018-03-22T05:15:27.794Z,99.99
2018-03-22T05:16:27.861Z,99.99
2018-03-22T05:17:27.869Z,99.99
2018-03-22T05:18:27.906Z,99.99
2018-03-22T05:19:27.943Z,99.99
2018-03-22T05:20:27.981Z,99.99
2018-03-22T05:21:28.046Z,99.99
2018-03-22T05:22:28.055Z,99.99
2018-03-22T05:23:28.117Z,99.99
2018-03-22T05:24:28.132Z,99.99
2018-03-22T05:25:28.169Z,99.99
2018-03-22T05:26:28.208Z,99.99
2018-03-22T05:27:28.248Z,99.99
2018-03-22T05:28:28.313Z,99.99
2018-03-22T05:29:28.329Z,99.99
2018-03-22T05:30:28.358Z,99.99
2018-03-22T05:31:28.396Z,99.99
2018-03-22T05:32:28.436Z,99.99
2018-03-22T05:33:28.501Z,99.99
2018-03-22T05:34:28.512Z,99.99
2018-03-22T05:35:28.548Z,99.99
2018-03-22T05:36:28.591Z,99.99
2018-03-22T05:37:28.620Z,99.99
2018-03-22T05:38:28.735Z,99.99
2018-03-22T05:39:28.697Z,99.99
2018-03-22T05:40:28.739Z,99.99
2018-03-22T05:41:28.770Z,99.99
2018-03-22T05:42:28.809Z,99.99
2018-03-22T05:43:28.875Z,99.99
2018-03-22T05:44:29.666Z,99.99
2018-03-22T05:45:28.921Z,99.99
2018-03-22T05:46:28.967Z,99.99
2018-03-22T05:47:28.997Z,99.99
2018-03-22T05:48:29.073Z,99.99
2018-03-22T05:49:29.074Z,99.99
2018-03-22T05:50:29.111Z,99.99
2018-03-22T05:51:29.149Z,99.99
2018-03-22T05:52:29.185Z,99.99
2018-03-22T05:53:29.259Z,99.99
2018-03-22T05:54:29.262Z,99.99
2018-03-22T05:55:29.301Z,99.99
2018-03-22T05:56:29.340Z,99.99
2018-03-22T05:57:29.376Z,99.99
2018-03-22T05:58:29.439Z,99.99
2018-03-22T05:59:29.481Z,99.99
2018-03-22T06:00:29.491Z,99.99
2018-03-22T06:01:29.530Z,99.99
2018-03-22T06:02:29.573Z,99.99
2018-03-22T06:03:29.606Z,99.99
2018-03-22T06:04:29.669Z,99.99
2018-03-22T06:05:29.682Z,99.99
2018-03-22T06:06:29.720Z,99.99
2018-03-22T06:07:29.759Z,99.99
2018-03-22T06:08:29.800Z,99.99
2018-03-22T06:09:29.879Z,99.99
2018-03-22T06:10:29.878Z,99.99
2018-03-22T06:11:29.922Z,99.99
2018-03-22T06:12:29.957Z,99.99
2018-03-22T06:13:29.991Z,99.99
2018-03-22T06:14:30.060Z,99.99
2018-03-22T06:15:30.073Z,99.99
2018-03-22T06:16:30.105Z,99.99
2018-03-22T06:17:30.172Z,99.99
2018-03-22T06:18:30.184Z,99.99
2018-03-22T06:19:30.248Z,99.99
2018-03-22T06:20:30.263Z,99.99
2018-03-22T06:21:30.300Z,99.99
2018-03-22T06:22:30.345Z,99.99
2018-03-22T06:23:30.378Z,99.99
2018-03-22T06:24:30.439Z,99.99
2018-03-22T06:25:30.453Z,99.99
2018-03-22T06:26:30.517Z,99.99
2018-03-22T06:27:30.529Z,99.99
2018-03-22T06:28:30.573Z,99.99
2018-03-22T06:29:30.608Z,99.99
2018-03-22T06:30:30.649Z,99.99
2018-03-22T06:31:30.717Z,99.99
2018-03-22T06:32:30.727Z,99.99
2018-03-22T06:33:30.766Z,99.99
2018-03-22T06:34:30.841Z,99.99
2018-03-22T06:35:30.842Z,99.99
2018-03-22T06:36:30.910Z,99.99
2018-03-22T06:37:30.921Z,99.47
2018-03-22T06:38:30.963Z,99.95
2018-03-22T06:39:31.036Z,99.99
2018-03-22T06:40:31.040Z,99.66
2018-03-22T06:41:31.080Z,99.95
2018-03-22T06:42:31.119Z,99.99
2018-03-22T06:43:31.161Z,99.99
2018-03-22T06:44:31.240Z,99.99
2018-03-22T06:45:31.241Z,99.99
2018-03-22T06:46:31.277Z,99.99
2018-03-22T06:47:31.316Z,99.99
2018-03-22T06:48:31.363Z,99.99
2018-03-22T06:49:31.452Z,99.99
2018-03-22T06:50:31.437Z,99.99
2018-03-22T06:51:31.476Z,99.99
2018-03-22T06:52:31.517Z,99.99
2018-03-22T06:53:31.555Z,99.99
2018-03-22T06:54:31.627Z,99.99
2018-03-22T06:55:31.634Z,99.99
2018-03-22T06:56:31.675Z,99.99
2018-03-22T06:57:31.715Z,99.99
2018-03-22T06:58:31.756Z,99.99
2018-03-22T06:59:31.820Z,99.99
2018-03-22T07:00:31.833Z,99.99
2018-03-22T07:01:31.877Z,99.99
2018-03-22T07:02:31.942Z,98.91
2018-03-22T07:03:31.959Z,94.56
2018-03-22T07:04:31.993Z,90.48
2018-03-22T07:05:32.035Z,85.41
2018-03-22T07:06:32.076Z,82.60
2018-03-22T07:07:32.137Z,79.80
2018-03-22T07:08:32.152Z,76.39
2018-03-22T07:09:32.858Z,74.24
2018-03-22T07:10:32.243Z,72.44
2018-03-22T07:11:32.309Z,71.23
2018-03-22T07:12:32.322Z,70.57
2018-03-22T07:13:32.364Z,69.87
2018-03-22T07:14:32.429Z,69.87
2018-03-22T07:15:32.440Z,69.81
2018-03-22T07:16:32.521Z,69.34
2018-03-22T07:17:32.525Z,69.53
2018-03-22T07:18:32.564Z,68.67
2018-03-22T07:19:32.610Z,68.77
2018-03-22T07:20:32.650Z,68.19
2018-03-22T07:21:32.725Z,68.96
2018-03-22T07:22:32.733Z,68.01
2018-03-22T07:23:32.774Z,67.53
2018-03-22T07:24:32.817Z,67.53
2018-03-22T07:25:32.864Z,67.47
2018-03-22T07:26:32.936Z,67.50
2018-03-22T07:27:32.944Z,68.54
2018-03-22T07:28:32.989Z,69.36
2018-03-22T07:29:33.033Z,69.46
2018-03-22T07:30:33.076Z,70.15
2018-03-22T07:31:33.156Z,71.80
2018-03-22T07:32:33.160Z,73.75
2018-03-22T07:33:33.201Z,74.92
2018-03-22T07:34:33.243Z,75.21
2018-03-22T07:35:33.286Z,75.49
2018-03-22T07:36:33.364Z,75.15
2018-03-22T07:37:33.374Z,73.54
2018-03-22T07:38:33.417Z,73.07
2018-03-22T07:39:33.459Z,73.69
2018-03-22T07:40:33.501Z,75.59
2018-03-22T07:41:33.571Z,75.05
2018-03-22T07:42:33.590Z,74.01
2018-03-22T07:43:33.671Z,73.79
2018-03-22T07:44:33.674Z,76.31
2018-03-22T07:45:33.716Z,78.49
2018-03-22T07:46:33.759Z,78.67
2018-03-22T07:47:33.803Z,77.67
2018-03-22T07:48:33.882Z,76.29
2018-03-22T07:49:33.890Z,74.15
2018-03-22T07:50:33.933Z,72.97
2018-03-22T07:51:33.976Z,73.16
2018-03-22T07:52:34.020Z,72.44
2018-03-22T07:53:34.088Z,71.39
2018-03-22T07:54:34.107Z,72.06
2018-03-22T07:55:34.155Z,73.14
2018-03-22T07:56:34.195Z,71.26
2018-03-22T07:57:34.236Z,71.13
2018-03-22T07:58:34.304Z,73.46
2018-03-22T07:59:34.327Z,76.78
2018-03-22T08:00:34.368Z,77.54
2018-03-22T08:01:34.416Z,76.06
2018-03-22T08:02:34.458Z,74.92
2018-03-22T08:03:34.522Z,75.05
2018-03-22T08:04:34.561Z,74.05
2018-03-22T08:05:34.585Z,72.28
2018-03-22T08:06:34.632Z,71.43
2018-03-22T08:07:34.686Z,69.91
2018-03-22T08:08:34.741Z,69.43
2018-03-22T08:09:34.761Z,68.90
2018-03-22T08:10:34.828Z,68.19
2018-03-22T08:11:34.852Z,69.02
2018-03-22T08:12:34.896Z,69.43
2018-03-22T08:13:34.936Z,68.13
2018-03-22T08:14:34.985Z,67.00
2018-03-22T08:15:35.056Z,65.28
2018-03-22T08:16:35.071Z,66.11
2018-03-22T08:17:35.115Z,69.84
2018-03-22T08:18:35.159Z,71.67
2018-03-22T08:19:35.206Z,70.82
2018-03-22T08:20:35.300Z,70.69
2018-03-22T08:21:35.302Z,73.84
2018-03-22T08:22:35.341Z,75.78
2018-03-22T08:23:35.384Z,74.96
2018-03-22T08:24:35.432Z,74.05
2018-03-22T08:25:35.497Z,71.14
2018-03-22T08:26:35.518Z,70.19
2018-03-22T08:27:35.563Z,68.42
2018-03-22T08:28:35.608Z,68.13
2018-03-22T08:29:35.653Z,72.14
2018-03-22T08:30:35.724Z,74.35
2018-03-22T08:31:35.768Z,75.02
2018-03-22T08:32:35.822Z,75.34
2018-03-22T08:33:35.831Z,74.30
2018-03-22T08:34:35.883Z,72.40
2018-03-22T08:35:35.946Z,72.59
2018-03-22T08:36:35.971Z,72.97
2018-03-22T08:37:36.036Z,73.16
2018-03-22T08:38:36.059Z,71.67
2018-03-22T08:39:36.104Z,71.13
2018-03-22T08:40:36.149Z,72.74
2018-03-22T08:41:36.215Z,72.97
2018-03-22T08:42:36.268Z,71.48
2018-03-22T08:43:36.282Z,69.30
2018-03-22T08:44:36.328Z,69.49
2018-03-22T08:45:36.370Z,69.11
2018-03-22T08:46:36.418Z,68.23
2018-03-22T08:47:36.492Z,69.13
2018-03-22T08:48:36.507Z,70.03
2018-03-22T08:49:36.550Z,70.40
2018-03-22T08:50:36.599Z,69.52
2018-03-22T08:51:36.646Z,68.38
2018-03-22T08:52:36.719Z,68.60
2018-03-22T08:53:36.756Z,69.17
2018-03-22T08:54:36.778Z,68.26
2018-03-22T08:55:36.823Z,65.66
2018-03-22T08:56:36.867Z,66.86
2018-03-22T08:57:36.914Z,69.10
2018-03-22T08:58:36.982Z,69.71
2018-03-22T08:59:37.005Z,68.57
2018-03-22T09:00:37.049Z,67.24
2018-03-22T09:01:37.100Z,69.17
2018-03-22T09:02:37.138Z,69.21
2018-03-22T09:03:37.209Z,66.30
2018-03-22T09:04:37.240Z,62.34
2018-03-22T09:05:37.277Z,62.43
2018-03-22T09:06:37.322Z,64.59
2018-03-22T09:07:37.367Z,66.83
2018-03-22T09:08:37.448Z,69.13
2018-03-22T09:09:37.457Z,68.83
2018-03-22T09:10:37.510Z,65.56
2018-03-22T09:11:37.554Z,66.08
2018-03-22T09:12:37.593Z,63.70
2018-03-22T09:13:37.670Z,63.32
2018-03-22T09:14:37.687Z,63.73
2018-03-22T09:15:37.762Z,62.69
2018-03-22T09:16:37.777Z,61.01
2018-03-22T09:17:37.826Z,59.08
2018-03-22T09:18:37.874Z,59.78
2018-03-22T09:19:37.918Z,61.36
2018-03-22T09:20:37.998Z,64.01
2018-03-22T09:21:38.006Z,64.08
2018-03-22T09:22:38.059Z,65.31
2018-03-22T09:23:38.104Z,66.48
2018-03-22T09:24:38.150Z,66.01
2018-03-22T09:25:38.215Z,67.37
2018-03-22T09:26:38.238Z,66.99
2018-03-22T09:27:38.283Z,66.74
2018-03-22T09:28:38.330Z,63.95
2018-03-22T09:29:38.400Z,64.20
2018-03-22T09:30:38.421Z,65.16
2018-03-22T09:31:38.468Z,66.07
2018-03-22T09:32:38.513Z,68.57
2018-03-22T09:33:38.562Z,68.38
2018-03-22T09:34:38.630Z,67.71
2018-03-22T09:35:38.652Z,67.87
2018-03-22T09:36:38.703Z,69.38
2018-03-22T09:37:38.743Z,69.80
2018-03-22T09:38:38.793Z,69.23
2018-03-22T09:39:38.879Z,68.60
2018-03-22T09:40:38.883Z,67.79
2018-03-22T09:41:38.935Z,65.95
2018-03-22T09:42:38.975Z,66.52
2018-03-22T09:43:39.023Z,65.69
2018-03-22T09:44:39.106Z,64.65
2018-03-22T09:45:39.112Z,65.00
2018-03-22T09:46:39.159Z,67.33
2018-03-22T09:47:39.207Z,68.29
2018-03-22T09:48:39.253Z,69.73
2018-03-22T09:49:39.320Z,71.72
2018-03-22T09:50:39.347Z,72.19
2018-03-22T09:51:39.389Z,74.09
2018-03-22T09:52:39.441Z,74.09
2018-03-22T09:53:39.536Z,73.96
2018-03-22T09:54:40.363Z,75.04
2018-03-22T09:55:39.572Z,75.60
2018-03-22T09:56:39.619Z,75.70
2018-03-22T09:57:39.667Z,74.22
2018-03-22T09:58:39.739Z,72.33
2018-03-22T09:59:39.754Z,70.56
2018-03-22T10:00:39.797Z,70.75
2018-03-22T10:01:39.848Z,68.73
2018-03-22T10:02:39.888Z,69.07
2018-03-22T10:03:39.969Z,71.28
2018-03-22T10:04:39.979Z,72.80
2018-03-22T10:05:40.032Z,71.89
2018-03-22T10:06:40.067Z,70.47
2018-03-22T10:07:40.111Z,69.20
2018-03-22T10:08:40.181Z,70.72
2018-03-22T10:09:40.209Z,70.72
2018-03-22T10:10:40.247Z,70.58
2018-03-22T10:11:40.316Z,71.53
2018-03-22T10:12:40.335Z,72.86
2018-03-22T10:13:40.383Z,74.18
2018-03-22T10:14:40.449Z,73.27
2018-03-22T10:15:40.477Z,72.99
2018-03-22T10:16:40.521Z,70.81
2018-03-22T10:17:40.581Z,71.47
2018-03-22T10:18:40.604Z,71.62
2018-03-22T10:19:40.671Z,72.38
2018-03-22T10:20:40.736Z,73.61
2018-03-22T10:21:40.781Z,73.61
2018-03-22T10:22:40.781Z,74.18
2018-03-22T10:23:40.826Z,73.65
2018-03-22T10:24:40.874Z,74.13
2018-03-22T10:25:40.953Z,72.33
2018-03-22T10:26:40.964Z,70.43
2018-03-22T10:27:41.010Z,69.96
2018-03-22T10:28:41.051Z,70.05
2018-03-22T10:29:41.100Z,69.80
2018-03-22T10:30:41.165Z,70.84
2018-03-22T10:31:41.184Z,69.13
2018-03-22T10:32:41.259Z,68.41
2018-03-22T10:33:41.276Z,67.21
2018-03-22T10:34:41.319Z,65.85
2018-03-22T10:35:41.367Z,65.28
2018-03-22T10:36:41.410Z,66.01
2018-03-22T10:37:41.478Z,68.66
2018-03-22T10:38:41.500Z,69.99
2018-03-22T10:39:41.547Z,69.90
2018-03-22T10:40:41.596Z,69.99
2018-03-22T10:41:41.682Z,69.17
2018-03-22T10:42:41.685Z,67.85
2018-03-22T10:43:41.730Z,69.65
2018-03-22T10:44:41.778Z,69.36
2018-03-22T10:45:41.823Z,67.71
2018-03-22T10:46:41.890Z,67.71
2018-03-22T10:47:41.917Z,69.42
2018-03-22T10:48:41.961Z,68.95
2018-03-22T10:49:42.026Z,68.29
2018-03-22T10:50:42.053Z,68.57
2018-03-22T10:51:42.095Z,67.94
2018-03-22T10:52:42.141Z,66.80
2018-03-22T10:53:42.193Z,66.55
2018-03-22T10:54:42.256Z,64.46
2018-03-22T10:55:42.282Z,64.14
2018-03-22T10:56:42.326Z,63.57
2018-03-22T10:57:42.372Z,63.89
2018-03-22T10:58:42.417Z,63.98
2018-03-22T10:59:42.488Z,63.42
2018-03-22T11:00:42.509Z,62.56
2018-03-22T11:01:42.557Z,61.49
2018-03-22T11:02:42.602Z,61.96
2018-03-22T11:03:42.649Z,61.52
2018-03-22T11:04:42.719Z,62.66
2018-03-22T11:05:42.744Z,61.20
2018-03-22T11:06:42.789Z,61.14
2018-03-22T11:07:42.856Z,61.90
2018-03-22T11:08:42.879Z,60.57
2018-03-22T11:09:42.946Z,60.57
2018-03-22T11:10:42.972Z,61.26
2018-03-22T11:11:43.019Z,61.36
2018-03-22T11:12:43.067Z,60.88
2018-03-22T11:13:43.109Z,60.41
2018-03-22T11:14:43.180Z,59.36
2018-03-22T11:15:43.225Z,59.55
2018-03-22T11:16:43.250Z,60.10
2018-03-22T11:17:43.294Z,61.23
2018-03-22T11:18:43.341Z,62.31
2018-03-22T11:19:43.437Z,63.51
2018-03-22T11:20:43.458Z,61.71
2018-03-22T11:21:43.491Z,61.52
2018-03-22T11:22:43.532Z,62.43
2018-03-22T11:23:43.574Z,63.20
2018-03-22T11:24:43.658Z,66.74
2018-03-22T11:25:43.668Z,64.94
2018-03-22T11:26:43.715Z,64.02
2018-03-22T11:27:43.760Z,64.40
2018-03-22T11:28:43.808Z,63.95
2018-03-22T11:29:43.877Z,62.24
2018-03-22T11:30:43.906Z,62.15
2018-03-22T11:31:43.975Z,59.71
2018-03-22T11:32:43.998Z,60.89
2018-03-22T11:33:44.046Z,62.97
2018-03-22T11:34:44.097Z,63.73
2018-03-22T11:35:44.162Z,63.17
2018-03-22T11:36:44.188Z,63.26
2018-03-22T11:37:44.235Z,63.64
2018-03-22T11:38:44.311Z,66.14
2018-03-22T11:39:44.327Z,66.04
2018-03-22T11:40:44.377Z,62.94
2018-03-22T11:41:44.420Z,63.07
2018-03-22T11:42:44.468Z,62.34
2018-03-22T11:43:44.542Z,62.37
2018-03-22T11:44:44.563Z,59.61
2018-03-22T11:45:44.608Z,58.28
2018-03-22T11:46:44.682Z,54.89
2018-03-22T11:47:44.708Z,56.22
2018-03-22T11:48:44.752Z,56.12
2018-03-22T11:49:44.821Z,55.33
2018-03-22T11:50:44.845Z,54.77
2018-03-22T11:51:44.895Z,54.96
2018-03-22T11:52:44.940Z,54.64
2018-03-22T11:53:45.011Z,56.38
2018-03-22T11:54:45.070Z,54.93
2018-03-22T11:55:45.084Z,56.63
2018-03-22T11:56:45.136Z,57.68
2018-03-22T11:57:45.182Z,55.57
2018-03-22T11:58:45.232Z,56.61
2018-03-22T11:59:45.312Z,58.03
2018-03-22T12:00:45.330Z,58.10
2018-03-22T12:01:45.377Z,59.14
2018-03-22T12:02:45.423Z,60.28
2018-03-22T12:03:45.474Z,60.66
2018-03-22T12:04:45.588Z,64.05
2018-03-22T12:05:45.567Z,61.29
2018-03-22T12:06:45.622Z,58.37
2018-03-22T12:07:45.662Z,56.60
2018-03-22T12:08:45.718Z,52.89
2018-03-22T12:09:45.788Z,51.84
2018-03-22T12:10:45.807Z,52.44
2018-03-22T12:11:45.862Z,50.79
2018-03-22T12:12:45.904Z,50.32
2018-03-22T12:13:45.954Z,49.25
2018-03-22T12:14:46.030Z,51.79
2018-03-22T12:15:46.054Z,52.62
2018-03-22T12:16:46.098Z,53.22
2018-03-22T12:17:46.149Z,56.07
2018-03-22T12:18:46.197Z,56.19
2018-03-22T12:19:46.272Z,54.00
2018-03-22T12:20:46.316Z,51.93
2018-03-22T12:21:46.339Z,52.98
2018-03-22T12:22:46.391Z,52.32
2018-03-22T12:23:46.438Z,51.08
2018-03-22T12:24:46.485Z,49.18
2018-03-22T12:25:46.561Z,47.44
2018-03-22T12:26:46.583Z,46.94
2018-03-22T12:27:46.632Z,48.39
2018-03-22T12:28:46.683Z,48.11
2018-03-22T12:29:46.732Z,46.40
2018-03-22T12:30:46.801Z,45.45
2018-03-22T12:31:46.826Z,44.49
2018-03-22T12:32:46.875Z,45.07
2018-03-22T12:33:46.922Z,44.02
2018-03-22T12:34:46.969Z,43.64
2018-03-22T12:35:47.876Z,45.45
2018-03-22T12:36:47.070Z,46.30
2018-03-22T12:37:47.134Z,45.16
2018-03-22T12:38:47.166Z,45.07
2018-03-22T12:39:47.213Z,46.20
2018-03-22T12:40:47.295Z,46.88
2018-03-22T12:41:47.308Z,46.88
2018-03-22T12:42:47.359Z,47.63
2018-03-22T12:43:47.405Z,47.63
2018-03-22T12:44:47.453Z,47.82
2018-03-22T12:45:47.524Z,47.33
2018-03-22T12:46:47.572Z,47.99
2018-03-22T12:47:47.598Z,47.04
2018-03-22T12:48:47.647Z,47.23
2018-03-22T12:49:47.692Z,47.71
2018-03-22T12:50:47.740Z,48.08
2018-03-22T12:51:47.812Z,49.60
2018-03-22T12:52:47.840Z,48.91